Time;durP1;ratioP1;P1;durP2;ratioP2;P2;SDS_P1;SDS_P2;PMS_P1;PMS_P2;Temp;Humidity;BMP_temperature;BMP_pressure;BME280_temperature;BME280_humidity;BME280_pressure;Samples;Min_cycle;Max_cycle;Signal;HPM_P1;HPM_P2
2022/03/11 00:00:38;;;;;;;;;24.75;20.75;;;;;12.24;50.71;100967.97;5025899;28;45382;-69
2022/03/11 00:03:03;;;;;;;;;29.25;20.75;;;;;12.23;50.89;100962.81;5029478;28;45465;-69
2022/03/11 00:05:28;;;;;;;;;24.25;21.00;;;;;12.22;50.88;100959.38;5032073;28;45592;-69
2022/03/11 00:07:55;;;;;;;;;30.50;24.75;;;;;12.21;51.05;100965.44;5028386;28;45599;-70
2022/03/11 00:10:21;;;;;;;;;28.00;24.00;;;;;12.21;50.99;100959.38;5025597;28;45395;-70
2022/03/11 00:12:47;;;;;;;;;28.50;26.00;;;;;12.19;50.92;100951.63;5029129;28;45839;-70
2022/03/11 00:15:12;;;;;;;;;27.75;22.50;;;;;12.17;51.31;100946.44;5023340;28;46441;-70
2022/03/11 00:17:37;;;;;;;;;23.50;22.00;;;;;12.13;51.31;100944.84;5040322;28;45538;-68
2022/03/11 00:20:03;;;;;;;;;26.50;19.75;;;;;12.11;51.33;100943.19;5039090;28;45582;-68
2022/03/11 00:22:29;;;;;;;;;29.50;24.00;;;;;12.08;51.10;100935.47;5039222;28;45506;-69
2022/03/11 00:24:55;;;;;;;;;30.25;23.50;;;;;12.08;51.38;100945.91;5037096;28;45569;-69
2022/03/11 00:27:21;;;;;;;;;29.75;22.50;;;;;12.10;51.41;100938.88;5028743;28;45404;-73
2022/03/11 00:29:46;;;;;;;;;29.00;22.00;;;;;12.11;51.55;100938.84;5040339;28;45422;-71
2022/03/11 00:32:11;;;;;;;;;23.25;21.00;;;;;12.16;51.54;100931.72;5040201;28;45316;-73
2022/03/11 00:34:37;;;;;;;;;26.75;19.75;;;;;12.22;51.63;100935.06;5026728;28;46628;-71
2022/03/11 00:37:02;;;;;;;;;20.00;18.25;;;;;12.25;51.39;100934.97;5030366;28;45345;-71
2022/03/11 00:39:28;;;;;;;;;26.25;21.50;;;;;12.25;51.71;100925.38;5036485;28;45408;-72
2022/03/11 00:41:53;;;;;;;;;20.00;17.50;;;;;12.25;51.60;100922.78;5032988;28;45198;-72
2022/03/11 00:44:20;;;;;;;;;26.00;20.50;;;;;12.21;51.91;100931.56;5033050;28;45479;-72
2022/03/11 00:46:45;;;;;;;;;22.25;21.25;;;;;12.17;51.80;100933.44;5027612;28;45214;-72
2022/03/11 00:49:11;;;;;;;;;28.25;22.75;;;;;12.16;52.02;100928.25;5038699;28;45450;-72
2022/03/11 00:51:36;;;;;;;;;22.25;20.25;;;;;12.12;51.39;100918.84;5028143;28;45316;-71
2022/03/11 00:54:02;;;;;;;;;25.50;22.50;;;;;12.11;51.80;100915.38;5026587;28;46576;-74
2022/03/11 00:56:30;;;;;;;;;29.25;22.00;;;;;12.10;52.21;100916.28;5032288;28;45561;-75
2022/03/11 00:58:55;;;;;;;;;27.00;20.50;;;;;12.08;51.95;100912.03;5034970;28;45367;-74
2022/03/11 01:01:21;;;;;;;;;26.00;23.00;;;;;12.07;52.10;100918.13;5031812;28;45413;-74
2022/03/11 01:03:46;;;;;;;;;26.50;18.25;;;;;12.04;52.24;100907.81;5032666;28;45339;-75
2022/03/11 01:06:11;;;;;;;;;23.00;21.25;;;;;12.01;52.19;100897.47;5028117;28;45351;-75
2022/03/11 01:08:37;;;;;;;;;19.50;17.00;;;;;12.00;52.46;100895.75;5026598;28;45322;-75
2022/03/11 01:11:02;;;;;;;;;30.25;22.25;;;;;12.00;52.24;100894.00;5031665;28;45359;-75
2022/03/11 01:13:27;;;;;;;;;19.50;15.50;;;;;12.02;52.43;100886.19;5022949;28;45469;-75
2022/03/11 01:15:53;;;;;;;;;17.50;17.50;;;;;12.04;52.44;100889.59;5031625;28;45307;-72
2022/03/11 01:18:18;;;;;;;;;24.50;17.75;;;;;12.07;52.50;100886.88;5032849;28;45395;-68
2022/03/11 01:20:43;;;;;;;;;24.75;17.50;;;;;12.06;52.71;100877.38;5027867;28;45281;-70
2022/03/11 01:23:09;;;;;;;;;22.25;19.00;;;;;12.12;52.28;100882.38;5025347;28;45475;-70
2022/03/11 01:25:34;;;;;;;;;35.50;27.50;;;;;12.15;52.42;100877.91;5031377;28;45282;-70
2022/03/11 01:27:59;;;;;;;;;20.50;14.25;;;;;12.17;52.39;100880.47;5031678;28;45315;-70
2022/03/11 01:30:25;;;;;;;;;29.50;21.75;;;;;12.19;52.39;100874.31;5028152;28;45270;-70
2022/03/11 01:32:50;;;;;;;;;22.75;17.25;;;;;12.22;52.54;100872.53;5025871;28;45419;-70
2022/03/11 01:35:16;;;;;;;;;27.50;20.25;;;;;12.22;52.26;100873.38;5031125;28;45172;-70
2022/03/11 01:37:42;;;;;;;;;26.75;19.75;;;;;12.23;52.28;100871.63;5032934;28;45241;-71
2022/03/11 01:40:08;;;;;;;;;21.50;17.75;;;;;12.22;52.46;100872.53;5039021;28;45631;-73
2022/03/11 01:42:36;;;;;;;;;25.25;21.75;;;;;12.15;52.58;100872.69;5038014;28;47002;-73
2022/03/11 01:45:03;;;;;;;;;26.00;19.50;;;;;12.10;52.50;100866.78;5019510;28;45847;-73
2022/03/11 01:47:28;;;;;;;;;23.25;21.50;;;;;12.09;52.42;100866.84;5032494;28;45330;-72
2022/03/11 01:49:53;;;;;;;;;24.25;20.25;;;;;12.06;52.67;100857.38;5032556;28;45521;-72
2022/03/11 01:52:19;;;;;;;;;23.25;17.00;;;;;12.06;52.47;100859.97;5032585;28;46088;-73
2022/03/11 01:54:45;;;;;;;;;25.75;20.25;;;;;12.02;52.73;100844.50;5019376;28;45357;-73
2022/03/11 01:57:12;;;;;;;;;23.00;18.50;;;;;12.00;52.80;100851.50;5032658;28;45542;-72
2022/03/11 01:59:37;;;;;;;;;23.00;20.00;;;;;12.00;52.89;100846.28;5026244;28;45249;-73
2022/03/11 02:02:03;;;;;;;;;23.75;16.25;;;;;12.01;52.94;100843.63;5027013;28;46532;-73
2022/03/11 02:04:28;;;;;;;;;22.00;18.50;;;;;12.03;52.94;100838.41;5027974;28;45872;-73
2022/03/11 02:06:54;;;;;;;;;29.25;19.00;;;;;12.03;53.14;100833.19;5029478;28;45427;-72
2022/03/11 02:09:19;;;;;;;;;27.75;15.75;;;;;12.04;52.61;100832.28;5035364;28;45383;-72
2022/03/11 02:11:46;;;;;;;;;27.50;21.25;;;;;12.07;52.84;100837.38;5035901;28;46507;-74
2022/03/11 02:14:12;;;;;;;;;21.25;17.25;;;;;12.07;53.07;100829.56;5040839;28;45206;-74
2022/03/11 02:16:40;;;;;;;;;12.25;12.25;;;;;12.08;53.23;100831.28;5029431;28;45325;-73
2022/03/11 02:19:05;;;;;;;;;19.75;19.00;;;;;12.06;53.16;100831.34;5034641;28;45447;-74
2022/03/11 02:21:36;;;;;;;;;23.00;19.00;;;;;12.06;53.36;100835.69;5035688;28;46262;-72
2022/03/11 02:24:02;;;;;;;;;18.25;15.50;;;;;12.06;52.89;100841.75;5030926;28;45378;-73
2022/03/11 02:26:29;;;;;;;;;21.50;21.25;;;;;12.06;53.28;100840.91;5029147;28;45336;-72
2022/03/11 02:28:56;;;;;;;;;25.50;22.00;;;;;12.07;53.41;100835.63;5033506;28;45267;-72
2022/03/11 02:31:25;;;;;;;;;23.50;19.25;;;;;12.07;53.54;100837.38;5035319;28;45275;-73
2022/03/11 02:33:51;;;;;;;;;23.50;18.50;;;;;12.06;53.61;100830.47;5031827;28;45873;-74
2022/03/11 02:36:16;;;;;;;;;24.00;22.75;;;;;12.07;53.57;100821.75;5028861;28;45509;-72
2022/03/11 02:38:42;;;;;;;;;23.50;21.50;;;;;12.09;53.50;100820.81;5040121;28;45320;-69
2022/03/11 02:41:07;;;;;;;;;27.25;20.25;;;;;12.11;53.50;100818.16;5040713;28;46535;-69
2022/03/11 02:43:32;;;;;;;;;24.50;17.25;;;;;12.10;53.31;100811.25;5030159;28;45320;-68
2022/03/11 02:45:59;;;;;;;;;24.25;21.00;;;;;12.10;54.01;100813.84;5041760;28;45479;-69
2022/03/11 02:48:24;;;;;;;;;25.00;21.75;;;;;12.07;53.69;100806.13;5040895;28;45225;-69
2022/03/11 02:50:50;;;;;;;;;32.50;25.25;;;;;12.07;53.57;100809.59;5027449;28;46114;-68
2022/03/11 02:53:15;;;;;;;;;22.25;18.25;;;;;12.06;53.71;100800.06;5031753;28;45384;-69
2022/03/11 02:55:41;;;;;;;;;24.25;19.00;;;;;12.04;53.70;100799.28;5034104;28;45182;-67
2022/03/11 02:58:06;;;;;;;;;15.00;8.25;;;;;11.99;54.20;100792.50;5028173;28;45480;-67
2022/03/11 03:00:31;;;;;;;;;18.00;16.25;;;;;11.95;54.11;100804.75;5030066;28;45515;-67
2022/03/11 03:02:57;;;;;;;;;24.75;20.50;;;;;11.91;54.23;100797.09;5040164;28;45467;-68
2022/03/11 03:05:23;;;;;;;;;24.75;23.25;;;;;11.85;54.74;100792.94;5041168;28;45438;-67
2022/03/11 03:07:48;;;;;;;;;23.00;16.75;;;;;11.78;54.71;100788.78;5038376;28;46743;-68
2022/03/11 03:10:14;;;;;;;;;23.25;18.50;;;;;11.73;54.80;100786.34;5040488;28;46507;-67
2022/03/11 03:12:40;;;;;;;;;21.25;19.50;;;;;11.69;54.71;100787.34;5037534;28;45529;-68
2022/03/11 03:15:08;;;;;;;;;24.50;22.25;;;;;11.64;55.10;100778.81;5037890;28;45360;-68
2022/03/11 03:17:34;;;;;;;;;24.50;18.25;;;;;11.57;55.43;100775.53;5038043;28;45750;-69
2022/03/11 03:20:00;;;;;;;;;31.75;20.25;;;;;11.55;55.63;100785.16;5038562;28;46334;-68
2022/03/11 03:22:25;;;;;;;;;25.25;18.75;;;;;11.50;55.45;100783.59;5038606;28;45510;-70
2022/03/11 03:24:50;;;;;;;;;23.75;19.50;;;;;11.45;55.52;100769.88;5033639;28;45390;-72
2022/03/11 03:27:16;;;;;;;;;23.00;19.25;;;;;11.38;55.64;100758.78;5029263;28;45412;-66
2022/03/11 03:29:42;;;;;;;;;19.75;19.50;;;;;11.31;56.24;100752.06;5027439;28;45530;-66
2022/03/11 03:32:08;;;;;;;;;18.50;18.00;;;;;11.24;55.92;100751.41;5031068;28;45616;-67
2022/03/11 03:34:35;;;;;;;;;24.00;19.75;;;;;11.17;56.20;100749.88;5034934;28;45473;-68
2022/03/11 03:37:05;;;;;;;;;25.00;19.25;;;;;11.14;57.15;100751.72;5030975;28;45332;-67
2022/03/11 03:39:30;;;;;;;;;24.25;14.75;;;;;11.13;56.75;100747.41;5038106;28;45531;-68
2022/03/11 03:41:57;;;;;;;;;24.75;18.00;;;;;11.10;57.10;100752.72;5033095;28;45249;-67
2022/03/11 03:44:23;;;;;;;;;23.75;18.25;;;;;11.05;57.25;100750.25;5034518;28;45323;-67
2022/03/11 03:46:49;;;;;;;;;23.50;20.75;;;;;11.04;57.38;100755.50;5028732;28;45375;-70
2022/03/11 03:49:14;;;;;;;;;26.75;19.75;;;;;11.00;57.29;100749.50;5039376;28;45407;-70
2022/03/11 03:51:40;;;;;;;;;20.00;19.25;;;;;10.98;58.06;100751.31;5028978;28;45404;-69
2022/03/11 03:54:07;;;;;;;;;24.00;19.25;;;;;10.94;57.49;100754.91;5027570;28;45315;-68
2022/03/11 03:56:34;;;;;;;;;21.75;18.75;;;;;10.90;58.06;100753.28;5041125;28;45300;-65
2022/03/11 03:59:04;;;;;;;;;24.25;17.00;;;;;10.86;58.48;100738.69;5038747;28;46600;-73
2022/03/11 04:01:33;;;;;;;;;23.75;15.50;;;;;10.81;58.55;100737.94;5029506;28;45486;-72
2022/03/11 04:03:59;;;;;;;;;25.25;18.00;;;;;10.79;58.49;100735.38;5025057;28;45357;-68
2022/03/11 04:06:24;;;;;;;;;17.75;16.25;;;;;10.78;58.91;100732.81;5040374;28;45355;-69
2022/03/11 04:08:49;;;;;;;;;24.75;20.75;;;;;10.75;59.11;100736.38;5024435;28;46106;-68
2022/03/11 04:11:15;;;;;;;;;25.75;16.25;;;;;10.73;59.07;100735.56;5028830;28;45277;-69
2022/03/11 04:13:40;;;;;;;;;24.50;19.25;;;;;10.70;59.53;100735.66;5021452;28;45745;-70
2022/03/11 04:16:05;;;;;;;;;16.50;15.00;;;;;10.69;59.62;100741.75;5027116;28;45529;-74
2022/03/11 04:18:31;;;;;;;;;25.25;19.25;;;;;10.66;59.59;100732.28;5029920;28;45688;-74
2022/03/11 04:20:56;;;;;;;;;21.50;20.00;;;;;10.67;59.70;100730.56;5025561;28;45579;-72
2022/03/11 04:23:22;;;;;;;;;25.00;21.25;;;;;10.63;59.56;100723.75;5024418;28;46613;-68
2022/03/11 04:25:47;;;;;;;;;20.50;20.25;;;;;10.64;59.81;100723.69;5027747;28;45603;-74
2022/03/11 04:28:12;;;;;;;;;22.75;16.25;;;;;10.61;59.48;100713.38;5031518;28;46595;-73
2022/03/11 04:30:38;;;;;;;;;24.75;15.00;;;;;10.61;59.84;100717.69;5026886;28;45612;-73
2022/03/11 04:33:03;;;;;;;;;20.25;16.50;;;;;10.59;60.13;100717.75;5026540;28;45309;-73
2022/03/11 04:35:28;;;;;;;;;19.25;17.50;;;;;10.58;60.33;100723.00;5030251;28;45273;-72
2022/03/11 04:37:54;;;;;;;;;19.50;19.00;;;;;10.56;60.21;100732.56;5034594;28;45405;-72
2022/03/11 04:40:19;;;;;;;;;20.50;18.50;;;;;10.52;60.43;100734.41;5031113;28;45250;-74
2022/03/11 04:42:44;;;;;;;;;17.25;14.50;;;;;10.53;60.54;100733.53;5033685;28;45336;-74
2022/03/11 04:45:10;;;;;;;;;18.00;16.75;;;;;10.52;60.79;100726.63;5028159;28;45324;-74
2022/03/11 04:47:35;;;;;;;;;23.75;14.75;;;;;10.51;60.75;100722.31;5039218;28;45432;-71
2022/03/11 04:50:01;;;;;;;;;22.75;16.50;;;;;10.48;60.78;100732.81;5032299;28;45292;-71
2022/03/11 04:52:26;;;;;;;;;16.25;15.00;;;;;10.47;60.96;100728.50;5021831;28;45369;-70
2022/03/11 04:54:52;;;;;;;;;15.75;12.75;;;;;10.47;61.42;100727.66;5032060;28;45318;-71
2022/03/11 04:57:17;;;;;;;;;15.00;15.00;;;;;10.44;61.44;100725.13;5033426;28;45307;-71
2022/03/11 04:59:44;;;;;;;;;24.25;14.25;;;;;10.43;61.56;100721.69;5028108;28;45418;-75
2022/03/11 05:02:09;;;;;;;;;17.25;16.50;;;;;10.42;61.32;100721.72;5039741;28;45292;-75
2022/03/11 05:04:34;;;;;;;;;19.25;15.25;;;;;10.40;62.03;100708.75;5031816;28;45255;-74
2022/03/11 05:07:00;;;;;;;;;21.50;13.00;;;;;10.36;61.94;100704.53;5033408;28;45336;-72
2022/03/11 05:09:25;;;;;;;;;15.75;13.50;;;;;10.33;62.04;100713.28;5026869;28;45347;-73
2022/03/11 05:11:50;;;;;;;;;22.25;18.25;;;;;10.31;62.32;100720.25;5026230;28;45220;-73
2022/03/11 05:14:16;;;;;;;;;22.00;12.50;;;;;10.30;62.56;100715.09;5028229;28;45379;-73
2022/03/11 05:16:41;;;;;;;;;15.75;13.50;;;;;10.29;62.37;100709.06;5036867;28;48082;-72
2022/03/11 05:19:07;;;;;;;;;14.75;14.75;;;;;10.28;62.48;100709.97;5028002;28;45292;-72
2022/03/11 05:21:33;;;;;;;;;19.50;13.75;;;;;10.24;62.51;100697.94;5038047;28;45224;-72
2022/03/11 05:23:58;;;;;;;;;15.50;13.75;;;;;10.24;62.63;100707.50;5027912;28;45295;-72
2022/03/11 05:26:28;;;;;;;;;19.00;14.25;;;;;10.22;62.99;100701.50;5024843;28;47154;-72
2022/03/11 05:28:55;;;;;;;;;18.50;13.00;;;;;10.20;63.42;100703.22;5031016;28;45241;-71
2022/03/11 05:31:20;;;;;;;;;23.00;15.25;;;;;10.21;62.64;100700.63;5032970;28;45554;-70
2022/03/11 05:33:47;;;;;;;;;14.50;11.50;;;;;10.16;63.79;100692.06;5028763;28;45225;-72
2022/03/11 05:36:12;;;;;;;;;16.75;16.25;;;;;10.17;62.71;100692.91;5025767;28;46549;-72
2022/03/11 05:38:38;;;;;;;;;19.25;14.50;;;;;10.19;63.29;100688.53;5040937;28;45375;-72
2022/03/11 05:41:03;;;;;;;;;12.50;12.50;;;;;10.17;63.30;100679.91;5042411;28;45311;-73
2022/03/11 05:43:28;;;;;;;;;17.50;14.00;;;;;10.16;63.48;100683.41;5030229;28;45509;-73
2022/03/11 05:45:54;;;;;;;;;18.75;11.75;;;;;10.14;63.82;100675.66;5029225;28;45463;-72
2022/03/11 05:48:19;;;;;;;;;13.25;11.00;;;;;10.09;63.69;100667.16;5041182;28;45466;-74
2022/03/11 05:50:44;;;;;;;;;19.50;14.00;;;;;10.11;63.38;100669.72;5042435;28;45362;-73
2022/03/11 05:53:10;;;;;;;;;13.75;12.50;;;;;10.09;63.69;100677.53;5030264;28;45283;-73
2022/03/11 05:55:35;;;;;;;;;16.75;12.75;;;;;10.07;64.22;100669.78;5029051;28;45519;-72
2022/03/11 05:58:00;;;;;;;;;18.50;13.00;;;;;10.07;64.47;100680.19;5035599;28;45371;-70
2022/03/11 06:00:26;;;;;;;;;18.00;12.00;;;;;10.06;64.33;100675.88;5036084;28;45340;-70
2022/03/11 06:02:51;;;;;;;;;14.00;12.50;;;;;10.06;64.67;100678.47;5029663;28;45374;-70
2022/03/11 06:05:16;;;;;;;;;12.50;8.50;;;;;10.06;64.51;100672.44;5028872;28;45457;-71
2022/03/11 06:07:42;;;;;;;;;10.00;7.75;;;;;10.05;64.44;100668.13;5035638;28;45312;-74
2022/03/11 06:10:08;;;;;;;;;9.25;8.00;;;;;10.06;64.48;100669.84;5035839;28;45604;-74
2022/03/11 06:12:33;;;;;;;;;18.00;11.75;;;;;10.07;64.32;100672.38;5023437;28;45613;-74
2022/03/11 06:14:59;;;;;;;;;15.00;12.25;;;;;10.08;64.42;100665.44;5035372;28;45310;-73
2022/03/11 06:17:24;;;;;;;;;13.00;6.75;;;;;10.09;63.47;100663.72;5022345;28;45318;-74
2022/03/11 06:19:49;;;;;;;;;12.75;10.75;;;;;10.09;64.55;100671.50;5022201;28;45257;-74
2022/03/11 06:22:15;;;;;;;;;14.75;11.25;;;;;10.08;66.23;100673.25;5022179;28;45576;-73
2022/03/11 06:24:42;;;;;;;;;12.25;9.25;;;;;10.12;65.25;100671.41;5035190;28;46229;-74
2022/03/11 06:27:07;;;;;;;;;14.00;11.75;;;;;10.14;64.15;100669.63;5020352;28;45265;-74
2022/03/11 06:29:32;;;;;;;;;10.00;8.75;;;;;10.17;65.03;100672.97;5021937;28;45230;-74
2022/03/11 06:31:58;;;;;;;;;15.00;11.75;;;;;10.20;64.98;100670.31;5021910;28;45445;-74
2022/03/11 06:34:24;;;;;;;;;9.25;8.00;;;;;10.25;64.53;100670.22;5022040;28;45426;-74
2022/03/11 06:36:50;;;;;;;;;8.50;8.50;;;;;10.28;65.05;100670.16;5028295;28;45715;-69
2022/03/11 06:39:15;;;;;;;;;14.00;10.50;;;;;10.32;64.17;100663.97;5035204;28;45369;-69
2022/03/11 06:41:42;;;;;;;;;17.75;14.50;;;;;10.40;64.93;100662.00;5040506;28;45409;-68
2022/03/11 06:44:08;;;;;;;;;17.25;13.25;;;;;10.44;65.09;100658.44;5041460;28;45319;-73
2022/03/11 06:46:33;;;;;;;;;11.75;11.75;;;;;10.46;64.68;100659.25;5028243;28;45263;-73
2022/03/11 06:48:58;;;;;;;;;9.50;9.25;;;;;10.51;64.16;100661.72;5041303;28;45268;-74
2022/03/11 06:51:24;;;;;;;;;12.00;8.00;;;;;10.52;64.15;100666.84;5028169;28;45475;-70
2022/03/11 06:53:49;;;;;;;;;12.75;8.50;;;;;10.56;64.61;100655.47;5028708;28;45793;-71
2022/03/11 06:56:15;;;;;;;;;10.25;9.00;;;;;10.60;64.14;100654.47;5034914;28;45186;-73
2022/03/11 06:58:40;;;;;;;;;6.50;6.00;;;;;10.62;64.30;100644.94;5034410;28;45284;-71
2022/03/11 07:01:05;;;;;;;;;14.25;12.00;;;;;10.67;64.47;100657.78;5040183;28;45558;-73
2022/03/11 07:03:31;;;;;;;;;16.75;8.50;;;;;10.71;64.17;100648.13;5028479;28;46257;-73
2022/03/11 07:05:56;;;;;;;;;12.50;10.25;;;;;10.73;64.17;100643.75;5034761;28;45271;-70
2022/03/11 07:08:22;;;;;;;;;13.25;7.00;;;;;10.75;63.54;100648.00;5034154;28;45214;-74
2022/03/11 07:10:47;;;;;;;;;10.00;8.75;;;;;10.77;64.49;100635.81;5027918;28;45269;-71
2022/03/11 07:13:12;;;;;;;;;13.50;8.75;;;;;10.80;63.78;100640.91;5028432;28;46313;-73
2022/03/11 07:15:38;;;;;;;;;9.50;8.00;;;;;10.81;64.05;100640.03;5040528;28;45253;-70
2022/03/11 07:18:03;;;;;;;;;13.00;9.50;;;;;10.88;63.37;100638.94;5028607;28;45335;-74
2022/03/11 07:20:29;;;;;;;;;12.00;8.25;;;;;10.92;64.05;100643.16;5033825;28;45261;-74
2022/03/11 07:22:54;;;;;;;;;9.25;9.00;;;;;10.97;63.72;100643.84;5032836;28;45443;-76
2022/03/11 07:25:19;;;;;;;;;9.00;9.00;;;;;11.03;63.56;100637.63;5039282;28;45733;-77
2022/03/11 07:27:45;;;;;;;;;9.50;7.75;;;;;11.06;62.99;100634.94;5028521;28;45304;-72
2022/03/11 07:30:12;;;;;;;;;7.00;7.00;;;;;11.12;63.29;100623.47;5034150;28;45506;-72
2022/03/11 07:32:38;;;;;;;;;7.50;7.00;;;;;11.15;63.06;100616.41;5033723;28;46111;-72
2022/03/11 07:35:04;;;;;;;;;9.75;8.25;;;;;11.17;63.23;100621.56;5027606;28;45246;-73
2022/03/11 07:37:29;;;;;;;;;8.75;7.75;;;;;11.19;62.75;100630.19;5027852;28;45430;-73
2022/03/11 07:39:55;;;;;;;;;10.00;6.00;;;;;11.21;62.75;100618.84;5040516;28;45258;-73
2022/03/11 07:42:20;;;;;;;;;14.75;11.00;;;;;11.26;62.38;100614.34;5029636;28;46269;-73
2022/03/11 07:44:45;;;;;;;;;9.25;9.00;;;;;11.30;62.60;100625.50;5034154;28;45455;-73
2022/03/11 07:47:11;;;;;;;;;8.25;8.25;;;;;11.31;62.82;100627.19;5020539;28;45288;-73
2022/03/11 07:49:36;;;;;;;;;5.75;5.75;;;;;11.39;62.14;100622.59;5034235;28;45247;-74
2022/03/11 07:52:03;;;;;;;;;9.00;7.75;;;;;11.41;62.37;100617.31;5032022;28;45545;-73
2022/03/11 07:54:28;;;;;;;;;10.50;8.50;;;;;11.47;62.24;100619.75;5027200;28;45711;-74
2022/03/11 07:56:54;;;;;;;;;7.25;7.25;;;;;11.51;61.96;100610.94;5039451;28;45303;-74
2022/03/11 07:59:19;;;;;;;;;12.75;10.50;;;;;11.55;61.87;100610.78;5034990;28;45331;-75
2022/03/11 08:01:46;;;;;;;;;12.00;8.75;;;;;11.61;61.68;100614.06;5031589;28;46457;-73
2022/03/11 08:04:13;;;;;;;;;9.50;8.00;;;;;11.64;61.66;100614.84;5026907;28;45911;-74
2022/03/11 08:06:41;;;;;;;;;13.25;8.00;;;;;11.70;61.46;100608.56;5039320;28;45277;-73
2022/03/11 08:09:07;;;;;;;;;11.75;9.50;;;;;11.79;61.19;100605.66;5034454;28;45239;-73
2022/03/11 08:11:32;;;;;;;;;11.00;7.25;;;;;11.85;61.04;100595.91;5032749;28;46264;-74
2022/03/11 08:13:58;;;;;;;;;13.50;9.75;;;;;11.87;60.92;100598.44;5020786;28;45178;-74
2022/03/11 08:16:23;;;;;;;;;4.25;4.25;;;;;11.91;60.61;100601.78;5033181;28;45236;-73
2022/03/11 08:18:48;;;;;;;;;10.75;9.00;;;;;11.94;60.52;100596.47;5038588;28;45478;-73
2022/03/11 08:21:16;;;;;;;;;8.25;7.25;;;;;12.04;60.35;100608.28;5028038;28;45455;-71
2022/03/11 08:23:42;;;;;;;;;8.75;8.50;;;;;12.20;60.33;100598.97;5038958;28;45324;-72
2022/03/11 08:26:09;;;;;;;;;7.50;7.50;;;;;12.34;59.83;100585.47;5040055;28;45498;-72
2022/03/11 08:28:35;;;;;;;;;8.00;7.00;;;;;12.42;59.41;100589.50;5035339;28;45265;-72
2022/03/11 08:31:00;;;;;;;;;8.50;7.25;;;;;12.53;59.25;100580.41;5028682;28;47994;-72
2022/03/11 08:33:29;;;;;;;;;5.00;5.00;;;;;12.63;58.85;100586.97;5048357;28;45308;-72
2022/03/11 08:35:54;;;;;;;;;7.75;7.75;;;;;12.72;58.58;100579.66;5020324;28;45382;-72
2022/03/11 08:38:19;;;;;;;;;7.75;7.50;;;;;12.81;58.47;100575.81;5027131;28;45261;-72
2022/03/11 08:40:45;;;;;;;;;7.75;7.75;;;;;12.95;58.39;100576.13;5039648;28;46139;-72
2022/03/11 08:43:11;;;;;;;;;9.75;9.00;;;;;13.08;57.44;100560.84;5026546;28;45367;-71
2022/03/11 08:45:36;;;;;;;;;7.75;5.00;;;;;13.15;57.26;100561.44;5028597;28;45292;-72
2022/03/11 08:48:02;;;;;;;;;8.75;6.00;;;;;13.17;56.85;100555.22;5036087;28;45646;-72
2022/03/11 08:50:27;;;;;;;;;10.75;5.00;;;;;13.24;56.68;100563.72;5028316;28;45604;-69
2022/03/11 08:52:53;;;;;;;;;5.00;4.50;;;;;13.21;56.41;100559.44;5033053;28;45480;-71
2022/03/11 08:55:18;;;;;;;;;9.75;6.00;;;;;13.23;56.38;100557.66;5032019;28;45276;-73
2022/03/11 08:57:49;;;;;;;;;8.75;6.00;;;;;13.34;56.65;100557.19;5032289;28;45760;-77
2022/03/11 09:00:16;;;;;;;;;9.25;8.00;;;;;13.52;55.99;100558.19;5035212;28;48175;-71
2022/03/11 09:02:43;;;;;;;;;15.25;10.00;;;;;13.66;55.77;100546.25;5038868;28;45484;-71
2022/03/11 09:05:09;;;;;;;;;6.50;4.75;;;;;13.80;55.49;100563.06;5039351;28;45190;-71
2022/03/11 09:07:35;;;;;;;;;8.25;5.00;;;;;13.92;55.52;100555.53;5038838;28;45489;-71
2022/03/11 09:10:00;;;;;;;;;5.00;5.00;;;;;14.02;54.74;100557.75;5038819;28;45234;-79
2022/03/11 09:12:26;;;;;;;;;4.75;3.75;;;;;14.07;54.75;100548.78;5035748;28;45281;-74
2022/03/11 09:14:52;;;;;;;;;8.75;6.75;;;;;14.08;54.03;100547.88;5037433;28;45308;-75
2022/03/11 09:17:17;;;;;;;;;8.00;4.75;;;;;14.13;53.93;100552.88;5038438;28;45222;-73
2022/03/11 09:19:43;;;;;;;;;5.75;4.00;;;;;14.16;54.08;100539.66;5033512;28;46940;-74
2022/03/11 09:22:11;;;;;;;;;10.50;5.00;;;;;14.16;53.87;100540.53;5035458;28;45677;-73
2022/03/11 09:24:37;;;;;;;;;7.75;4.75;;;;;14.24;53.93;100534.97;5038745;28;45473;-74
2022/03/11 09:27:03;;;;;;;;;10.50;6.50;;;;;14.33;53.57;100537.13;5038034;28;45408;-73
2022/03/11 09:29:30;;;;;;;;;7.00;5.00;;;;;14.36;53.34;100547.44;5038150;28;45467;-71
2022/03/11 09:31:56;;;;;;;;;5.50;4.75;;;;;14.35;52.52;100531.84;5038400;28;45459;-75
2022/03/11 09:34:25;;;;;;;;;6.00;4.75;;;;;14.36;53.34;100531.75;5035644;28;45524;-75
2022/03/11 09:36:54;;;;;;;;;9.50;7.00;;;;;14.46;52.96;100535.69;5037142;28;45478;-72
2022/03/11 09:39:21;;;;;;;;;9.25;5.00;;;;;14.67;52.66;100532.97;5037013;28;47289;-71
2022/03/11 09:41:47;;;;;;;;;13.00;12.00;;;;;14.80;53.26;100539.31;5035556;28;47057;-57
2022/03/11 09:44:14;;;;;;;;;5.75;5.00;;;;;15.04;54.10;100539.91;5036033;28;45362;-44
2022/03/11 09:46:41;;;;;;;;;7.75;6.00;;;;;15.29;53.83;100540.38;5036710;28;45671;-66
2022/03/11 09:49:07;;;;;;;;;6.00;3.75;;;;;15.59;54.36;100545.84;5038190;28;46625;-42
2022/03/11 09:51:36;;;;;;;;;6.75;5.25;;;;;15.98;54.45;100527.22;5031680;28;45347;-44
2022/03/11 09:54:02;;;;;;;;;5.00;4.75;;;;;16.20;53.08;100526.06;5032415;28;45272;-45
2022/03/11 09:56:29;;;;;;;;;11.50;5.50;;;;;16.25;53.37;100522.28;5027754;28;45214;-45
2022/03/11 09:58:55;;;;;;;;;5.25;5.00;;;;;16.27;51.11;100522.19;5025793;28;46548;-73
2022/03/11 10:01:20;;;;;;;;;8.00;6.75;;;;;16.10;50.07;100523.09;5037840;28;45293;-66
2022/03/11 10:03:45;;;;;;;;;7.00;6.00;;;;;15.97;50.48;100515.03;5037078;28;45319;-63
2022/03/11 10:06:11;;;;;;;;;6.25;5.25;;;;;15.93;50.48;100512.66;5027500;28;45482;-72
2022/03/11 10:08:39;;;;;;;;;8.50;4.00;;;;;15.88;49.53;100512.91;5025107;28;45309;-72
2022/03/11 10:11:23;;;;;;;;;5.75;4.75;;;;;15.77;49.84;100513.47;5030187;28;45241;-72
2022/03/11 10:13:51;;;;;;;;;7.25;5.00;;;;;15.60;49.38;100510.03;5024274;28;45233;-71
2022/03/11 10:16:20;;;;;;;;;4.00;4.00;;;;;15.39;49.75;100501.47;5034079;28;46002;-72
2022/03/11 10:19:03;;;;;;;;;6.50;6.50;;;;;15.23;50.16;100454.31;5017203;28;45359;-77
2022/03/11 10:21:50;;;;;;;;;4.50;4.00;;;;;15.12;50.68;100469.69;5033276;28;45869;-76
2022/03/11 10:24:18;;;;;;;;;8.25;4.00;;;;;15.13;50.92;100497.56;5041426;28;45408;-75
2022/03/11 10:26:47;;;;;;;;;6.75;6.00;;;;;15.12;51.55;100503.72;5047372;28;45201;-74
2022/03/11 10:29:34;;;;;;;;;8.00;6.00;;;;;15.21;51.44;100503.25;5047918;28;47382;-75
2022/03/11 10:32:01;;;;;;;;;5.25;5.25;;;;;15.37;51.19;100496.31;5040057;28;45938;-74
2022/03/11 10:34:27;;;;;;;;;4.50;4.00;;;;;15.55;50.83;100496.31;5028107;28;45517;-71
2022/03/11 10:37:02;;;;;;;;;5.25;3.25;;;;;15.67;50.45;100495.72;5040671;28;45494;-66
2022/03/11 10:39:32;;;;;;;;;9.00;6.00;;;;;15.80;50.19;100487.09;5041408;28;46197;-66
2022/03/11 10:42:20;;;;;;;;;5.00;5.00;;;;;15.86;49.72;100485.09;5033876;28;45445;-72
2022/03/11 10:45:06;;;;;;;;;5.00;4.50;;;;;15.86;49.61;100496.44;5038441;28;45414;-65
2022/03/11 10:47:39;;;;;;;;;4.75;4.00;;;;;15.78;49.96;100514.31;5040756;28;45458;-62
2022/03/11 10:50:06;;;;;;;;;6.50;5.50;;;;;15.68;49.90;100523.59;5041636;28;45406;-66
2022/03/11 10:52:47;;;;;;;;;6.00;4.50;;;;;15.60;50.01;100517.88;5041387;28;45766;-65
2022/03/11 10:55:15;;;;;;;;;8.00;4.75;;;;;15.44;50.35;100508.19;5030928;28;45403;-69
2022/03/11 10:57:42;;;;;;;;;0.75;0.00;;;;;15.35;50.42;100492.94;5034704;28;45334;-64
2022/03/11 11:00:20;;;;;;;;;7.00;5.00;;;;;15.26;50.85;100467.22;5033303;28;45424;-64
2022/03/11 11:02:47;;;;;;;;;6.50;5.75;;;;;15.20;51.47;100506.78;5034305;28;45407;-64
2022/03/11 11:05:13;;;;;;;;;6.00;4.75;;;;;14.97;52.42;100518.41;5035094;28;45339;-64
2022/03/11 11:07:41;;;;;;;;;7.00;5.75;;;;;14.84;53.26;100528.66;5028347;28;45186;-64
2022/03/11 11:10:07;;;;;;;;;5.50;4.00;;;;;14.79;53.64;100532.38;5039517;28;46134;-65